sensor_id;sensor_type;location;lat;lon;timestamp;P1;durP1;ratioP1;P2;durP2;ratioP2
2934;SDS011;2462;51.456;7.248;2024-03-23T00:53:11;6.77;;;3.10;;
2934;SDS011;2462;51.456;7.248;2024-03-23T00:55:38;3.43;;;2.60;;
2934;SDS011;2462;51.456;7.248;2024-03-23T00:58:03;5.20;;;2.90;;
2934;SDS011;2462;51.456;7.248;2024-03-23T01:00:29;6.60;;;2.93;;
2934;SDS011;2462;51.456;7.248;2024-03-23T01:02:54;3.30;;;2.57;;
2934;SDS011;2462;51.456;7.248;2024-03-23T01:05:20;7.10;;;3.60;;
2934;SDS011;2462;51.456;7.248;2024-03-23T01:07:45;5.00;;;3.23;;
2934;SDS011;2462;51.456;7.248;2024-03-23T01:10:11;3.40;;;2.70;;
2934;SDS011;2462;51.456;7.248;2024-03-23T01:12:37;3.37;;;2.87;;
2934;SDS011;2462;51.456;7.248;2024-03-23T01:15:02;3.83;;;2.80;;
2934;SDS011;2462;51.456;7.248;2024-03-23T01:17:28;4.50;;;2.83;;
2934;SDS011;2462;51.456;7.248;2024-03-23T01:19:53;4.17;;;2.43;;
2934;SDS011;2462;51.456;7.248;2024-03-23T01:22:19;3.13;;;2.30;;
2934;SDS011;2462;51.456;7.248;2024-03-23T01:24:44;5.33;;;2.40;;
2934;SDS011;2462;51.456;7.248;2024-03-23T01:27:10;3.10;;;2.60;;
2934;SDS011;2462;51.456;7.248;2024-03-23T01:29:35;5.03;;;3.10;;
2934;SDS011;2462;51.456;7.248;2024-03-23T01:32:01;5.47;;;2.57;;
2934;SDS011;2462;51.456;7.248;2024-03-23T01:34:26;5.80;;;2.53;;
2934;SDS011;2462;51.456;7.248;2024-03-23T01:36:53;3.80;;;2.53;;
2934;SDS011;2462;51.456;7.248;2024-03-23T01:39:18;3.20;;;2.70;;
2934;SDS011;2462;51.456;7.248;2024-03-23T01:41:44;3.10;;;2.33;;
2934;SDS011;2462;51.456;7.248;2024-03-23T01:44:09;2.93;;;2.57;;
2934;SDS011;2462;51.456;7.248;2024-03-23T01:46:36;2.37;;;2.17;;
2934;SDS011;2462;51.456;7.248;2024-03-23T01:49:02;2.90;;;2.50;;
2934;SDS011;2462;51.456;7.248;2024-03-23T01:51:29;3.50;;;2.63;;
2934;SDS011;2462;51.456;7.248;2024-03-23T01:53:55;3.93;;;2.60;;
2934;SDS011;2462;51.456;7.248;2024-03-23T01:56:21;3.17;;;2.53;;
2934;SDS011;2462;51.456;7.248;2024-03-23T01:58:47;4.13;;;2.43;;
2934;SDS011;2462;51.456;7.248;2024-03-23T02:01:13;4.20;;;2.73;;
2934;SDS011;2462;51.456;7.248;2024-03-23T02:03:38;3.80;;;2.73;;
2934;SDS011;2462;51.456;7.248;2024-03-23T02:06:04;3.67;;;2.77;;
2934;SDS011;2462;51.456;7.248;2024-03-23T02:08:32;4.90;;;2.50;;
2934;SDS011;2462;51.456;7.248;2024-03-23T02:10:58;4.20;;;2.47;;
2934;SDS011;2462;51.456;7.248;2024-03-23T02:13:24;2.90;;;2.50;;
2934;SDS011;2462;51.456;7.248;2024-03-23T02:15:49;4.90;;;2.70;;
2934;SDS011;2462;51.456;7.248;2024-03-23T02:18:15;3.20;;;2.30;;
2934;SDS011;2462;51.456;7.248;2024-03-23T02:20:41;4.60;;;2.43;;
2934;SDS011;2462;51.456;7.248;2024-03-23T02:23:16;4.10;;;2.60;;
2934;SDS011;2462;51.456;7.248;2024-03-23T02:25:42;3.33;;;2.53;;
2934;SDS011;2462;51.456;7.248;2024-03-23T02:28:08;4.70;;;2.33;;
2934;SDS011;2462;51.456;7.248;2024-03-23T02:30:34;4.13;;;2.40;;
2934;SDS011;2462;51.456;7.248;2024-03-23T02:33:00;2.40;;;2.20;;
2934;SDS011;2462;51.456;7.248;2024-03-23T02:35:26;3.93;;;1.97;;
2934;SDS011;2462;51.456;7.248;2024-03-23T02:37:51;3.17;;;2.07;;
2934;SDS011;2462;51.456;7.248;2024-03-23T02:40:18;3.60;;;2.00;;
2934;SDS011;2462;51.456;7.248;2024-03-23T02:42:44;2.60;;;1.77;;
2934;SDS011;2462;51.456;7.248;2024-03-23T02:45:10;3.07;;;2.27;;
2934;SDS011;2462;51.456;7.248;2024-03-23T02:47:35;4.17;;;2.10;;
2934;SDS011;2462;51.456;7.248;2024-03-23T02:50:01;3.03;;;2.20;;
2934;SDS011;2462;51.456;7.248;2024-03-23T02:52:26;3.30;;;1.90;;
2934;SDS011;2462;51.456;7.248;2024-03-23T02:54:52;3.50;;;2.13;;
2934;SDS011;2462;51.456;7.248;2024-03-23T02:57:18;3.73;;;2.60;;
2934;SDS011;2462;51.456;7.248;2024-03-23T02:59:43;2.60;;;1.93;;
2934;SDS011;2462;51.456;7.248;2024-03-23T03:02:09;3.27;;;1.90;;
2934;SDS011;2462;51.456;7.248;2024-03-23T03:04:34;2.40;;;2.20;;
2934;SDS011;2462;51.456;7.248;2024-03-23T03:07:00;4.40;;;2.27;;
2934;SDS011;2462;51.456;7.248;2024-03-23T03:09:26;3.23;;;2.30;;
2934;SDS011;2462;51.456;7.248;2024-03-23T03:11:52;2.90;;;2.00;;
2934;SDS011;2462;51.456;7.248;2024-03-23T03:14:17;4.27;;;2.60;;
2934;SDS011;2462;51.456;7.248;2024-03-23T03:16:43;4.47;;;2.57;;
2934;SDS011;2462;51.456;7.248;2024-03-23T03:19:08;2.03;;;1.83;;
2934;SDS011;2462;51.456;7.248;2024-03-23T03:21:35;3.87;;;1.93;;
2934;SDS011;2462;51.456;7.248;2024-03-23T03:24:01;3.07;;;2.37;;
2934;SDS011;2462;51.456;7.248;2024-03-23T03:26:27;3.43;;;2.23;;
2934;SDS011;2462;51.456;7.248;2024-03-23T03:28:53;3.40;;;2.47;;
2934;SDS011;2462;51.456;7.248;2024-03-23T03:31:18;3.00;;;1.97;;
2934;SDS011;2462;51.456;7.248;2024-03-23T03:33:44;4.17;;;2.33;;
2934;SDS011;2462;51.456;7.248;2024-03-23T03:36:10;3.10;;;2.30;;
2934;SDS011;2462;51.456;7.248;2024-03-23T03:38:36;2.53;;;2.13;;
2934;SDS011;2462;51.456;7.248;2024-03-23T03:41:02;2.93;;;1.87;;
2934;SDS011;2462;51.456;7.248;2024-03-23T03:43:28;6.20;;;2.00;;
2934;SDS011;2462;51.456;7.248;2024-03-23T03:45:54;2.90;;;1.97;;
2934;SDS011;2462;51.456;7.248;2024-03-23T03:48:21;2.47;;;1.77;;
2934;SDS011;2462;51.456;7.248;2024-03-23T03:50:46;3.40;;;2.30;;
2934;SDS011;2462;51.456;7.248;2024-03-23T03:53:12;3.13;;;2.17;;
2934;SDS011;2462;51.456;7.248;2024-03-23T03:55:37;3.70;;;1.70;;
2934;SDS011;2462;51.456;7.248;2024-03-23T03:58:03;4.33;;;2.30;;
2934;SDS011;2462;51.456;7.248;2024-03-23T04:00:29;2.53;;;2.00;;
2934;SDS011;2462;51.456;7.248;2024-03-23T04:02:55;2.70;;;2.07;;
2934;SDS011;2462;51.456;7.248;2024-03-23T04:05:21;3.37;;;2.03;;
2934;SDS011;2462;51.456;7.248;2024-03-23T04:07:47;3.00;;;2.23;;
2934;SDS011;2462;51.456;7.248;2024-03-23T04:10:13;4.73;;;1.97;;
2934;SDS011;2462;51.456;7.248;2024-03-23T04:12:38;2.90;;;1.90;;
2934;SDS011;2462;51.456;7.248;2024-03-23T04:15:05;3.10;;;2.23;;
2934;SDS011;2462;51.456;7.248;2024-03-23T04:17:31;2.83;;;2.03;;
2934;SDS011;2462;51.456;7.248;2024-03-23T04:19:58;1.83;;;1.63;;
2934;SDS011;2462;51.456;7.248;2024-03-23T04:22:24;2.70;;;1.80;;
2934;SDS011;2462;51.456;7.248;2024-03-23T04:24:51;4.10;;;1.97;;
2934;SDS011;2462;51.456;7.248;2024-03-23T04:27:20;2.70;;;2.17;;
2934;SDS011;2462;51.456;7.248;2024-03-23T04:29:47;2.33;;;1.77;;
2934;SDS011;2462;51.456;7.248;2024-03-23T04:32:16;2.33;;;1.67;;
2934;SDS011;2462;51.456;7.248;2024-03-23T04:34:42;2.33;;;1.77;;
2934;SDS011;2462;51.456;7.248;2024-03-23T04:37:09;2.60;;;1.40;;
2934;SDS011;2462;51.456;7.248;2024-03-23T04:39:38;1.97;;;1.77;;
2934;SDS011;2462;51.456;7.248;2024-03-23T04:42:04;2.97;;;1.37;;
2934;SDS011;2462;51.456;7.248;2024-03-23T04:44:29;2.90;;;1.60;;
2934;SDS011;2462;51.456;7.248;2024-03-23T04:46:56;2.27;;;1.53;;
2934;SDS011;2462;51.456;7.248;2024-03-23T04:49:25;2.57;;;1.50;;
2934;SDS011;2462;51.456;7.248;2024-03-23T04:51:51;3.43;;;2.10;;
2934;SDS011;2462;51.456;7.248;2024-03-23T04:54:16;3.37;;;1.73;;
2934;SDS011;2462;51.456;7.248;2024-03-23T04:56:42;2.10;;;1.70;;
2934;SDS011;2462;51.456;7.248;2024-03-23T04:59:07;2.60;;;1.77;;
2934;SDS011;2462;51.456;7.248;2024-03-23T05:01:34;2.70;;;1.50;;
2934;SDS011;2462;51.456;7.248;2024-03-23T05:03:59;2.53;;;1.90;;
2934;SDS011;2462;51.456;7.248;2024-03-23T05:06:26;6.10;;;2.23;;
2934;SDS011;2462;51.456;7.248;2024-03-23T05:08:52;3.77;;;2.03;;
2934;SDS011;2462;51.456;7.248;2024-03-23T05:11:17;5.63;;;1.93;;
2934;SDS011;2462;51.456;7.248;2024-03-23T05:13:43;2.73;;;2.20;;
2934;SDS011;2462;51.456;7.248;2024-03-23T05:16:09;2.90;;;1.97;;
2934;SDS011;2462;51.456;7.248;2024-03-23T05:18:35;3.60;;;1.80;;
2934;SDS011;2462;51.456;7.248;2024-03-23T05:21:01;1.93;;;1.63;;
2934;SDS011;2462;51.456;7.248;2024-03-23T05:23:27;1.90;;;1.77;;
2934;SDS011;2462;51.456;7.248;2024-03-23T05:25:53;3.57;;;1.57;;
2934;SDS011;2462;51.456;7.248;2024-03-23T05:28:19;2.30;;;1.83;;
2934;SDS011;2462;51.456;7.248;2024-03-23T05:30:54;4.00;;;2.00;;
2934;SDS011;2462;51.456;7.248;2024-03-23T05:33:21;1.93;;;1.60;;
2934;SDS011;2462;51.456;7.248;2024-03-23T05:35:47;2.40;;;1.67;;
2934;SDS011;2462;51.456;7.248;2024-03-23T05:38:21;4.27;;;1.70;;
2934;SDS011;2462;51.456;7.248;2024-03-23T05:41:20;3.37;;;1.40;;
2934;SDS011;2462;51.456;7.248;2024-03-23T05:43:39;2.20;;;1.50;;
2934;SDS011;2462;51.456;7.248;2024-03-23T05:46:04;3.97;;;1.80;;
2934;SDS011;2462;51.456;7.248;2024-03-23T05:48:30;2.07;;;1.50;;
2934;SDS011;2462;51.456;7.248;2024-03-23T05:50:56;2.20;;;2.00;;
2934;SDS011;2462;51.456;7.248;2024-03-23T05:53:22;3.20;;;1.93;;
2934;SDS011;2462;51.456;7.248;2024-03-23T05:55:49;1.83;;;1.63;;
2934;SDS011;2462;51.456;7.248;2024-03-23T05:58:16;2.57;;;1.70;;
2934;SDS011;2462;51.456;7.248;2024-03-23T06:00:42;3.80;;;1.70;;
2934;SDS011;2462;51.456;7.248;2024-03-23T06:03:08;2.77;;;1.90;;
2934;SDS011;2462;51.456;7.248;2024-03-23T06:05:35;4.00;;;2.00;;
2934;SDS011;2462;51.456;7.248;2024-03-23T06:08:03;2.00;;;1.50;;
2934;SDS011;2462;51.456;7.248;2024-03-23T06:10:29;2.00;;;1.70;;
2934;SDS011;2462;51.456;7.248;2024-03-23T06:12:55;3.33;;;1.73;;
2934;SDS011;2462;51.456;7.248;2024-03-23T06:15:21;1.87;;;1.77;;
2934;SDS011;2462;51.456;7.248;2024-03-23T06:17:47;4.03;;;1.67;;
2934;SDS011;2462;51.456;7.248;2024-03-23T06:20:13;4.17;;;1.60;;
2934;SDS011;2462;51.456;7.248;2024-03-23T06:22:39;2.23;;;2.00;;
2934;SDS011;2462;51.456;7.248;2024-03-23T06:25:05;2.80;;;1.80;;
2934;SDS011;2462;51.456;7.248;2024-03-23T06:27:31;4.30;;;1.90;;
2934;SDS011;2462;51.456;7.248;2024-03-23T06:29:58;1.70;;;1.43;;
2934;SDS011;2462;51.456;7.248;2024-03-23T06:32:24;2.87;;;1.90;;
2934;SDS011;2462;51.456;7.248;2024-03-23T06:34:49;3.20;;;2.10;;
2934;SDS011;2462;51.456;7.248;2024-03-23T06:37:15;4.63;;;2.37;;
2934;SDS011;2462;51.456;7.248;2024-03-23T06:39:41;2.23;;;1.70;;
2934;SDS011;2462;51.456;7.248;2024-03-23T06:42:11;2.53;;;2.00;;
2934;SDS011;2462;51.456;7.248;2024-03-23T06:44:36;2.23;;;1.83;;
2934;SDS011;2462;51.456;7.248;2024-03-23T06:47:02;3.83;;;2.17;;
2934;SDS011;2462;51.456;7.248;2024-03-23T06:49:27;5.60;;;2.10;;
2934;SDS011;2462;51.456;7.248;2024-03-23T06:51:53;2.13;;;1.77;;
2934;SDS011;2462;51.456;7.248;2024-03-23T06:54:19;7.83;;;2.30;;
2934;SDS011;2462;51.456;7.248;2024-03-23T06:56:45;1.47;;;1.37;;
2934;SDS011;2462;51.456;7.248;2024-03-23T06:59:11;2.30;;;2.00;;
2934;SDS011;2462;51.456;7.248;2024-03-23T07:01:37;2.30;;;2.10;;
2934;SDS011;2462;51.456;7.248;2024-03-23T07:04:02;2.60;;;1.97;;
2934;SDS011;2462;51.456;7.248;2024-03-23T07:06:29;2.80;;;2.13;;
2934;SDS011;2462;51.456;7.248;2024-03-23T07:08:55;3.17;;;2.10;;
2934;SDS011;2462;51.456;7.248;2024-03-23T07:11:21;2.30;;;2.10;;
2934;SDS011;2462;51.456;7.248;2024-03-23T07:13:49;2.90;;;2.40;;
2934;SDS011;2462;51.456;7.248;2024-03-23T07:16:15;2.67;;;2.00;;
2934;SDS011;2462;51.456;7.248;2024-03-23T07:18:41;3.17;;;1.93;;
2934;SDS011;2462;51.456;7.248;2024-03-23T07:21:07;2.53;;;1.93;;
2934;SDS011;2462;51.456;7.248;2024-03-23T07:23:33;3.00;;;2.70;;
2934;SDS011;2462;51.456;7.248;2024-03-23T07:25:59;4.50;;;2.47;;
2934;SDS011;2462;51.456;7.248;2024-03-23T07:28:25;3.97;;;2.87;;
2934;SDS011;2462;51.456;7.248;2024-03-23T07:33:26;2.87;;;2.23;;
2934;SDS011;2462;51.456;7.248;2024-03-23T07:35:52;3.20;;;2.60;;
2934;SDS011;2462;51.456;7.248;2024-03-23T07:38:18;3.30;;;2.63;;
2934;SDS011;2462;51.456;7.248;2024-03-23T07:40:43;2.67;;;2.37;;
2934;SDS011;2462;51.456;7.248;2024-03-23T07:43:09;3.20;;;2.70;;
2934;SDS011;2462;51.456;7.248;2024-03-23T07:45:34;2.33;;;2.13;;
2934;SDS011;2462;51.456;7.248;2024-03-23T07:48:00;3.17;;;2.30;;
2934;SDS011;2462;51.456;7.248;2024-03-23T07:50:25;3.07;;;2.50;;
2934;SDS011;2462;51.456;7.248;2024-03-23T07:52:51;2.70;;;2.40;;
2934;SDS011;2462;51.456;7.248;2024-03-23T07:55:17;2.50;;;2.30;;
2934;SDS011;2462;51.456;7.248;2024-03-23T07:57:42;2.77;;;2.57;;
2934;SDS011;2462;51.456;7.248;2024-03-23T08:00:08;3.20;;;2.43;;
2934;SDS011;2462;51.456;7.248;2024-03-23T08:02:33;3.13;;;2.40;;
2934;SDS011;2462;51.456;7.248;2024-03-23T08:04:59;2.30;;;2.13;;
2934;SDS011;2462;51.456;7.248;2024-03-23T08:07:25;3.70;;;2.80;;
2934;SDS011;2462;51.456;7.248;2024-03-23T08:09:50;4.60;;;2.90;;
2934;SDS011;2462;51.456;7.248;2024-03-23T08:12:16;3.07;;;2.63;;
2934;SDS011;2462;51.456;7.248;2024-03-23T08:14:41;5.00;;;2.70;;
2934;SDS011;2462;51.456;7.248;2024-03-23T08:17:07;4.40;;;3.00;;
2934;SDS011;2462;51.456;7.248;2024-03-23T08:19:33;3.13;;;2.30;;
2934;SDS011;2462;51.456;7.248;2024-03-23T08:21:58;2.73;;;2.47;;
2934;SDS011;2462;51.456;7.248;2024-03-23T08:24:24;2.60;;;2.40;;
2934;SDS011;2462;51.456;7.248;2024-03-23T08:26:49;2.20;;;2.00;;
2934;SDS011;2462;51.456;7.248;2024-03-23T08:29:15;3.60;;;2.60;;
2934;SDS011;2462;51.456;7.248;2024-03-23T08:31:41;2.90;;;2.10;;
2934;SDS011;2462;51.456;7.248;2024-03-23T08:34:06;2.80;;;2.60;;
2934;SDS011;2462;51.456;7.248;2024-03-23T08:36:32;3.00;;;2.70;;
2934;SDS011;2462;51.456;7.248;2024-03-23T08:38:57;6.30;;;3.20;;
2934;SDS011;2462;51.456;7.248;2024-03-23T08:41:23;7.67;;;3.30;;
2934;SDS011;2462;51.456;7.248;2024-03-23T08:43:48;4.33;;;3.40;;
2934;SDS011;2462;51.456;7.248;2024-03-23T08:46:15;4.60;;;3.00;;
2934;SDS011;2462;51.456;7.248;2024-03-23T08:48:42;4.40;;;3.17;;
2934;SDS011;2462;51.456;7.248;2024-03-23T08:51:09;5.13;;;2.80;;
2934;SDS011;2462;51.456;7.248;2024-03-23T08:53:35;3.40;;;3.10;;
2934;SDS011;2462;51.456;7.248;2024-03-23T08:56:02;4.47;;;3.33;;
2934;SDS011;2462;51.456;7.248;2024-03-23T08:58:28;4.47;;;3.27;;
2934;SDS011;2462;51.456;7.248;2024-03-23T09:00:55;3.43;;;2.87;;
2934;SDS011;2462;51.456;7.248;2024-03-23T09:03:22;8.03;;;3.37;;
2934;SDS011;2462;51.456;7.248;2024-03-23T09:05:49;4.40;;;3.80;;
2934;SDS011;2462;51.456;7.248;2024-03-23T09:08:14;5.43;;;4.07;;
2934;SDS011;2462;51.456;7.248;2024-03-23T09:10:40;5.03;;;2.83;;
2934;SDS011;2462;51.456;7.248;2024-03-23T09:13:07;4.97;;;3.70;;
2934;SDS011;2462;51.456;7.248;2024-03-23T09:15:34;5.17;;;3.43;;
2934;SDS011;2462;51.456;7.248;2024-03-23T09:18:00;7.63;;;3.77;;
2934;SDS011;2462;51.456;7.248;2024-03-23T09:20:26;4.30;;;3.20;;
2934;SDS011;2462;51.456;7.248;2024-03-23T09:22:52;4.37;;;2.93;;
2934;SDS011;2462;51.456;7.248;2024-03-23T09:25:17;6.67;;;3.37;;
2934;SDS011;2462;51.456;7.248;2024-03-23T09:27:44;6.77;;;3.07;;
2934;SDS011;2462;51.456;7.248;2024-03-23T09:30:11;5.50;;;3.63;;
2934;SDS011;2462;51.456;7.248;2024-03-23T09:32:40;5.40;;;3.37;;
2934;SDS011;2462;51.456;7.248;2024-03-23T09:35:09;4.10;;;2.93;;
2934;SDS011;2462;51.456;7.248;2024-03-23T09:37:35;5.93;;;3.07;;
2934;SDS011;2462;51.456;7.248;2024-03-23T09:40:00;5.30;;;2.67;;
2934;SDS011;2462;51.456;7.248;2024-03-23T09:42:27;6.83;;;2.53;;
2934;SDS011;2462;51.456;7.248;2024-03-23T09:44:52;3.70;;;2.57;;
2934;SDS011;2462;51.456;7.248;2024-03-23T09:47:19;4.80;;;3.20;;
2934;SDS011;2462;51.456;7.248;2024-03-23T09:49:44;6.20;;;3.03;;
2934;SDS011;2462;51.456;7.248;2024-03-23T09:52:10;6.30;;;3.30;;
2934;SDS011;2462;51.456;7.248;2024-03-23T09:54:35;5.83;;;2.40;;
2934;SDS011;2462;51.456;7.248;2024-03-23T09:57:01;4.70;;;2.97;;
2934;SDS011;2462;51.456;7.248;2024-03-23T09:59:27;5.13;;;3.10;;
2934;SDS011;2462;51.456;7.248;2024-03-23T10:01:54;7.23;;;3.20;;
2934;SDS011;2462;51.456;7.248;2024-03-23T10:04:35;3.10;;;2.80;;
2934;SDS011;2462;51.456;7.248;2024-03-23T10:07:21;4.50;;;2.90;;
2934;SDS011;2462;51.456;7.248;2024-03-23T10:09:47;5.13;;;2.90;;
2934;SDS011;2462;51.456;7.248;2024-03-23T10:12:13;2.90;;;2.43;;
2934;SDS011;2462;51.456;7.248;2024-03-23T10:14:40;3.13;;;2.37;;
2934;SDS011;2462;51.456;7.248;2024-03-23T10:17:20;4.23;;;2.73;;
2934;SDS011;2462;51.456;7.248;2024-03-23T10:19:49;4.10;;;2.60;;
2934;SDS011;2462;51.456;7.248;2024-03-23T10:22:19;3.23;;;2.60;;
2934;SDS011;2462;51.456;7.248;2024-03-23T10:24:46;4.57;;;2.70;;
2934;SDS011;2462;51.456;7.248;2024-03-23T10:27:15;2.70;;;2.33;;
2934;SDS011;2462;51.456;7.248;2024-03-23T10:29:48;5.20;;;3.00;;
2934;SDS011;2462;51.456;7.248;2024-03-23T10:32:15;5.13;;;3.17;;
2934;SDS011;2462;51.456;7.248;2024-03-23T10:34:42;4.10;;;2.70;;
2934;SDS011;2462;51.456;7.248;2024-03-23T10:37:08;3.53;;;2.40;;
2934;SDS011;2462;51.456;7.248;2024-03-23T10:39:40;10.63;;;2.83;;
2934;SDS011;2462;51.456;7.248;2024-03-23T10:42:07;3.73;;;2.50;;
2934;SDS011;2462;51.456;7.248;2024-03-23T10:44:35;4.10;;;2.40;;
2934;SDS011;2462;51.456;7.248;2024-03-23T10:47:01;4.30;;;2.10;;
2934;SDS011;2462;51.456;7.248;2024-03-23T10:49:28;3.17;;;2.47;;
2934;SDS011;2462;51.456;7.248;2024-03-23T10:51:58;3.00;;;2.20;;
2934;SDS011;2462;51.456;7.248;2024-03-23T10:54:33;7.03;;;2.27;;
2934;SDS011;2462;51.456;7.248;2024-03-23T10:57:11;5.73;;;2.17;;
2934;SDS011;2462;51.456;7.248;2024-03-23T10:59:39;4.27;;;2.33;;
2934;SDS011;2462;51.456;7.248;2024-03-23T11:02:05;4.07;;;2.07;;
2934;SDS011;2462;51.456;7.248;2024-03-23T11:04:36;6.23;;;2.03;;
2934;SDS011;2462;51.456;7.248;2024-03-23T11:09:51;5.60;;;2.30;;
2934;SDS011;2462;51.456;7.248;2024-03-23T11:14:50;9.17;;;2.60;;
2934;SDS011;2462;51.456;7.248;2024-03-23T11:17:24;10.50;;;2.60;;
2934;SDS011;2462;51.456;7.248;2024-03-23T11:25:13;7.47;;;2.03;;
2934;SDS011;2462;51.456;7.248;2024-03-23T11:27:42;3.17;;;2.23;;
2934;SDS011;2462;51.456;7.248;2024-03-23T11:30:18;7.13;;;2.20;;
2934;SDS011;2462;51.456;7.248;2024-03-23T11:32:45;8.90;;;2.33;;
2934;SDS011;2462;51.456;7.248;2024-03-23T11:40:33;6.30;;;1.70;;
2934;SDS011;2462;51.456;7.248;2024-03-23T11:42:59;5.50;;;1.73;;
2934;SDS011;2462;51.456;7.248;2024-03-23T11:45:26;10.00;;;1.73;;
2934;SDS011;2462;51.456;7.248;2024-03-23T11:48:06;5.83;;;1.73;;
2934;SDS011;2462;51.456;7.248;2024-03-23T11:50:34;4.27;;;2.20;;
2934;SDS011;2462;51.456;7.248;2024-03-23T11:53:23;5.70;;;1.87;;
2934;SDS011;2462;51.456;7.248;2024-03-23T11:55:58;2.70;;;1.63;;
2934;SDS011;2462;51.456;7.248;2024-03-23T11:58:25;5.17;;;1.83;;
2934;SDS011;2462;51.456;7.248;2024-03-23T12:01:12;7.67;;;1.90;;
2934;SDS011;2462;51.456;7.248;2024-03-23T12:03:37;7.43;;;1.90;;
2934;SDS011;2462;51.456;7.248;2024-03-23T12:06:03;43.70;;;5.83;;
2934;SDS011;2462;51.456;7.248;2024-03-23T12:08:34;70.47;;;7.72;;
2934;SDS011;2462;51.456;7.248;2024-03-23T12:13:32;40.37;;;4.83;;
2934;SDS011;2462;51.456;7.248;2024-03-23T12:16:16;41.43;;;4.40;;
2934;SDS011;2462;51.456;7.248;2024-03-23T12:18:43;39.47;;;5.10;;
2934;SDS011;2462;51.456;7.248;2024-03-23T12:21:10;37.80;;;5.27;;
2934;SDS011;2462;51.456;7.248;2024-03-23T12:23:35;43.93;;;5.20;;
2934;SDS011;2462;51.456;7.248;2024-03-23T12:26:03;29.63;;;4.57;;
2934;SDS011;2462;51.456;7.248;2024-03-23T12:28:29;43.30;;;4.70;;
2934;SDS011;2462;51.456;7.248;2024-03-23T12:30:54;24.53;;;4.93;;
2934;SDS011;2462;51.456;7.248;2024-03-23T12:33:20;29.80;;;4.10;;
2934;SDS011;2462;51.456;7.248;2024-03-23T12:35:46;36.93;;;4.17;;
2934;SDS011;2462;51.456;7.248;2024-03-23T12:38:12;29.17;;;3.73;;
2934;SDS011;2462;51.456;7.248;2024-03-23T12:40:38;21.83;;;3.33;;
2934;SDS011;2462;51.456;7.248;2024-03-23T12:43:03;18.00;;;3.37;;
2934;SDS011;2462;51.456;7.248;2024-03-23T12:45:29;25.93;;;4.83;;
2934;SDS011;2462;51.456;7.248;2024-03-23T12:47:54;17.50;;;2.90;;
2934;SDS011;2462;51.456;7.248;2024-03-23T12:50:20;30.90;;;4.03;;
2934;SDS011;2462;51.456;7.248;2024-03-23T12:52:46;21.27;;;4.13;;
2934;SDS011;2462;51.456;7.248;2024-03-23T12:55:12;36.47;;;5.50;;
2934;SDS011;2462;51.456;7.248;2024-03-23T12:57:38;28.63;;;3.30;;
2934;SDS011;2462;51.456;7.248;2024-03-23T13:00:04;23.17;;;3.17;;
2934;SDS011;2462;51.456;7.248;2024-03-23T13:02:31;12.17;;;2.97;;
2934;SDS011;2462;51.456;7.248;2024-03-23T13:04:56;12.87;;;2.67;;
2934;SDS011;2462;51.456;7.248;2024-03-23T13:07:23;15.77;;;3.40;;
2934;SDS011;2462;51.456;7.248;2024-03-23T13:09:52;19.43;;;3.23;;
2934;SDS011;2462;51.456;7.248;2024-03-23T13:12:21;13.20;;;2.87;;
2934;SDS011;2462;51.456;7.248;2024-03-23T13:14:47;15.60;;;2.63;;
2934;SDS011;2462;51.456;7.248;2024-03-23T13:17:13;22.03;;;3.27;;
2934;SDS011;2462;51.456;7.248;2024-03-23T13:19:38;12.80;;;2.93;;
2934;SDS011;2462;51.456;7.248;2024-03-23T13:22:04;16.27;;;2.77;;
2934;SDS011;2462;51.456;7.248;2024-03-23T13:24:30;15.47;;;3.93;;
2934;SDS011;2462;51.456;7.248;2024-03-23T13:26:56;6.73;;;2.13;;
2934;SDS011;2462;51.456;7.248;2024-03-23T13:29:22;17.47;;;2.77;;
2934;SDS011;2462;51.456;7.248;2024-03-23T13:31:49;14.00;;;2.30;;
2934;SDS011;2462;51.456;7.248;2024-03-23T13:34:15;9.00;;;2.90;;
2934;SDS011;2462;51.456;7.248;2024-03-23T13:36:44;11.67;;;2.00;;
2934;SDS011;2462;51.456;7.248;2024-03-23T13:39:11;9.67;;;2.30;;
2934;SDS011;2462;51.456;7.248;2024-03-23T13:41:40;7.53;;;2.20;;
2934;SDS011;2462;51.456;7.248;2024-03-23T13:44:07;12.23;;;2.20;;
2934;SDS011;2462;51.456;7.248;2024-03-23T13:46:35;7.30;;;2.20;;
2934;SDS011;2462;51.456;7.248;2024-03-23T13:49:01;11.23;;;2.23;;
2934;SDS011;2462;51.456;7.248;2024-03-23T13:51:27;12.13;;;2.47;;
2934;SDS011;2462;51.456;7.248;2024-03-23T13:53:53;10.33;;;1.73;;
2934;SDS011;2462;51.456;7.248;2024-03-23T13:56:20;8.40;;;2.27;;
2934;SDS011;2462;51.456;7.248;2024-03-23T13:58:45;11.00;;;2.00;;
2934;SDS011;2462;51.456;7.248;2024-03-23T14:01:12;16.10;;;2.97;;
2934;SDS011;2462;51.456;7.248;2024-03-23T14:03:39;8.13;;;1.70;;
2934;SDS011;2462;51.456;7.248;2024-03-23T14:06:05;5.83;;;2.80;;
2934;SDS011;2462;51.456;7.248;2024-03-23T14:08:32;4.90;;;2.30;;
2934;SDS011;2462;51.456;7.248;2024-03-23T14:11:00;8.77;;;2.10;;
2934;SDS011;2462;51.456;7.248;2024-03-23T14:13:27;3.70;;;2.30;;
2934;SDS011;2462;51.456;7.248;2024-03-23T14:15:53;4.60;;;2.17;;
2934;SDS011;2462;51.456;7.248;2024-03-23T14:18:19;5.50;;;1.80;;
2934;SDS011;2462;51.456;7.248;2024-03-23T14:20:44;10.17;;;2.00;;
2934;SDS011;2462;51.456;7.248;2024-03-23T14:23:10;10.70;;;2.17;;
2934;SDS011;2462;51.456;7.248;2024-03-23T14:25:35;5.33;;;2.10;;
2934;SDS011;2462;51.456;7.248;2024-03-23T14:28:01;8.57;;;1.87;;
2934;SDS011;2462;51.456;7.248;2024-03-23T14:30:26;4.40;;;1.53;;
2934;SDS011;2462;51.456;7.248;2024-03-23T14:32:52;7.13;;;2.03;;
2934;SDS011;2462;51.456;7.248;2024-03-23T14:35:17;5.67;;;1.63;;
2934;SDS011;2462;51.456;7.248;2024-03-23T14:37:43;4.07;;;1.97;;
2934;SDS011;2462;51.456;7.248;2024-03-23T14:40:08;5.13;;;1.67;;
2934;SDS011;2462;51.456;7.248;2024-03-23T14:42:37;5.40;;;1.73;;
2934;SDS011;2462;51.456;7.248;2024-03-23T14:45:06;4.53;;;2.03;;
2934;SDS011;2462;51.456;7.248;2024-03-23T14:47:33;4.40;;;1.70;;
2934;SDS011;2462;51.456;7.248;2024-03-23T14:49:58;4.13;;;1.40;;
2934;SDS011;2462;51.456;7.248;2024-03-23T14:52:24;5.47;;;1.90;;
2934;SDS011;2462;51.456;7.248;2024-03-23T14:54:49;6.47;;;1.70;;
2934;SDS011;2462;51.456;7.248;2024-03-23T14:57:15;6.47;;;1.93;;
2934;SDS011;2462;51.456;7.248;2024-03-23T14:59:40;5.53;;;1.43;;
2934;SDS011;2462;51.456;7.248;2024-03-23T15:02:06;3.10;;;1.70;;
2934;SDS011;2462;51.456;7.248;2024-03-23T15:04:32;10.33;;;1.90;;
2934;SDS011;2462;51.456;7.248;2024-03-23T15:06:59;2.83;;;1.50;;
2934;SDS011;2462;51.456;7.248;2024-03-23T15:09:25;3.20;;;1.50;;
2934;SDS011;2462;51.456;7.248;2024-03-23T15:11:50;3.97;;;1.47;;
2934;SDS011;2462;51.456;7.248;2024-03-23T15:14:16;3.77;;;1.53;;
2934;SDS011;2462;51.456;7.248;2024-03-23T15:16:41;2.83;;;1.27;;
2934;SDS011;2462;51.456;7.248;2024-03-23T15:19:07;3.40;;;1.40;;
2934;SDS011;2462;51.456;7.248;2024-03-23T15:21:36;5.30;;;1.83;;
2934;SDS011;2462;51.456;7.248;2024-03-23T15:24:01;3.50;;;1.67;;
2934;SDS011;2462;51.456;7.248;2024-03-23T15:26:30;5.93;;;1.83;;
2934;SDS011;2462;51.456;7.248;2024-03-23T15:28:56;1.90;;;1.37;;
2934;SDS011;2462;51.456;7.248;2024-03-23T15:31:21;4.97;;;1.30;;
2934;SDS011;2462;51.456;7.248;2024-03-23T15:33:47;11.50;;;1.90;;
2934;SDS011;2462;51.456;7.248;2024-03-23T15:36:12;15.17;;;2.17;;
2934;SDS011;2462;51.456;7.248;2024-03-23T15:38:38;5.53;;;1.73;;
2934;SDS011;2462;51.456;7.248;2024-03-23T15:41:04;7.80;;;1.93;;
2934;SDS011;2462;51.456;7.248;2024-03-23T15:43:29;3.63;;;1.40;;
2934;SDS011;2462;51.456;7.248;2024-03-23T15:48:22;8.43;;;2.20;;
2934;SDS011;2462;51.456;7.248;2024-03-23T15:50:52;10.63;;;2.17;;
2934;SDS011;2462;51.456;7.248;2024-03-23T15:53:22;11.95;;;2.50;;
2934;SDS011;2462;51.456;7.248;2024-03-23T15:58:24;14.00;;;2.30;;
2934;SDS011;2462;51.456;7.248;2024-03-23T16:01:00;15.83;;;2.77;;
2934;SDS011;2462;51.456;7.248;2024-03-23T16:03:27;7.57;;;2.30;;
2934;SDS011;2462;51.456;7.248;2024-03-23T16:05:54;12.20;;;2.30;;
2934;SDS011;2462;51.456;7.248;2024-03-23T16:08:22;6.73;;;2.27;;
2934;SDS011;2462;51.456;7.248;2024-03-23T16:10:48;10.43;;;3.00;;
2934;SDS011;2462;51.456;7.248;2024-03-23T16:13:13;7.20;;;2.30;;
2934;SDS011;2462;51.456;7.248;2024-03-23T16:15:39;8.43;;;2.00;;
2934;SDS011;2462;51.456;7.248;2024-03-23T16:18:05;6.87;;;2.10;;
2934;SDS011;2462;51.456;7.248;2024-03-23T16:20:31;11.90;;;2.20;;
2934;SDS011;2462;51.456;7.248;2024-03-23T16:22:58;5.87;;;2.77;;
2934;SDS011;2462;51.456;7.248;2024-03-23T16:25:24;6.93;;;2.33;;
2934;SDS011;2462;51.456;7.248;2024-03-23T16:27:50;7.83;;;2.07;;